sensor_id;sensor_type;location;lat;lon;timestamp;temperature;humidity
59128;DHT22;44912;52.754;5.994;2023-09-08T00:01:48;20.00;99.90
59128;DHT22;44912;52.754;5.994;2023-09-08T00:04:13;20.00;99.90
59128;DHT22;44912;52.754;5.994;2023-09-08T00:06:40;20.00;99.90
59128;DHT22;44912;52.754;5.994;2023-09-08T00:09:06;20.00;99.90
59128;DHT22;44912;52.754;5.994;2023-09-08T00:11:31;20.00;99.90
59128;DHT22;44912;52.754;5.994;2023-09-08T00:13:57;19.90;99.90
59128;DHT22;44912;52.754;5.994;2023-09-08T00:16:22;19.90;99.90
59128;DHT22;44912;52.754;5.994;2023-09-08T00:18:48;19.80;99.90
59128;DHT22;44912;52.754;5.994;2023-09-08T00:21:13;19.70;99.90
59128;DHT22;44912;52.754;5.994;2023-09-08T00:23:39;19.70;99.90
59128;DHT22;44912;52.754;5.994;2023-09-08T00:26:04;19.60;99.90
59128;DHT22;44912;52.754;5.994;2023-09-08T00:28:30;19.60;99.90
59128;DHT22;44912;52.754;5.994;2023-09-08T00:30:55;19.60;99.90
59128;DHT22;44912;52.754;5.994;2023-09-08T00:33:21;19.60;99.90
59128;DHT22;44912;52.754;5.994;2023-09-08T00:35:50;19.40;99.90
59128;DHT22;44912;52.754;5.994;2023-09-08T00:38:17;19.30;99.90
59128;DHT22;44912;52.754;5.994;2023-09-08T00:40:42;19.20;99.90
59128;DHT22;44912;52.754;5.994;2023-09-08T00:43:08;19.10;99.90
59128;DHT22;44912;52.754;5.994;2023-09-08T00:45:38;19.00;99.90
59128;DHT22;44912;52.754;5.994;2023-09-08T00:48:04;19.00;99.90
59128;DHT22;44912;52.754;5.994;2023-09-08T00:50:30;19.00;99.90
59128;DHT22;44912;52.754;5.994;2023-09-08T00:52:56;18.90;99.90
59128;DHT22;44912;52.754;5.994;2023-09-08T00:55:21;18.80;99.90
59128;DHT22;44912;52.754;5.994;2023-09-08T00:57:47;18.60;99.90
59128;DHT22;44912;52.754;5.994;2023-09-08T01:00:13;18.60;99.90
59128;DHT22;44912;52.754;5.994;2023-09-08T01:02:39;18.40;99.90
59128;DHT22;44912;52.754;5.994;2023-09-08T01:05:05;18.40;99.90
59128;DHT22;44912;52.754;5.994;2023-09-08T01:07:31;18.40;99.90
59128;DHT22;44912;52.754;5.994;2023-09-08T01:09:57;18.40;99.90
59128;DHT22;44912;52.754;5.994;2023-09-08T01:12:28;18.40;99.90
59128;DHT22;44912;52.754;5.994;2023-09-08T01:14:54;18.30;99.90
59128;DHT22;44912;52.754;5.994;2023-09-08T01:17:19;18.20;99.90
59128;DHT22;44912;52.754;5.994;2023-09-08T01:19:46;18.10;99.90
59128;DHT22;44912;52.754;5.994;2023-09-08T01:25:09;18.00;99.90
59128;DHT22;44912;52.754;5.994;2023-09-08T01:27:39;17.90;99.90
59128;DHT22;44912;52.754;5.994;2023-09-08T01:30:06;17.80;99.90
59128;DHT22;44912;52.754;5.994;2023-09-08T01:32:33;17.80;99.90
59128;DHT22;44912;52.754;5.994;2023-09-08T01:35:00;17.70;99.90
59128;DHT22;44912;52.754;5.994;2023-09-08T01:37:26;17.60;99.90
59128;DHT22;44912;52.754;5.994;2023-09-08T01:39:51;17.70;99.90
59128;DHT22;44912;52.754;5.994;2023-09-08T01:42:17;17.70;99.90
59128;DHT22;44912;52.754;5.994;2023-09-08T01:44:42;17.70;99.90
59128;DHT22;44912;52.754;5.994;2023-09-08T01:47:08;17.80;99.90
59128;DHT22;44912;52.754;5.994;2023-09-08T01:49:33;17.80;99.90
59128;DHT22;44912;52.754;5.994;2023-09-08T01:51:59;17.80;99.90
59128;DHT22;44912;52.754;5.994;2023-09-08T01:54:25;17.90;99.90
59128;DHT22;44912;52.754;5.994;2023-09-08T01:56:50;17.90;99.90
59128;DHT22;44912;52.754;5.994;2023-09-08T01:59:17;18.00;99.90
59128;DHT22;44912;52.754;5.994;2023-09-08T02:01:42;18.00;99.90
59128;DHT22;44912;52.754;5.994;2023-09-08T02:04:08;18.00;99.90
59128;DHT22;44912;52.754;5.994;2023-09-08T02:06:33;18.10;99.90
59128;DHT22;44912;52.754;5.994;2023-09-08T02:08:59;17.90;99.90
59128;DHT22;44912;52.754;5.994;2023-09-08T02:11:24;18.00;99.90
59128;DHT22;44912;52.754;5.994;2023-09-08T02:13:50;17.90;99.90
59128;DHT22;44912;52.754;5.994;2023-09-08T02:16:16;17.80;99.90
59128;DHT22;44912;52.754;5.994;2023-09-08T02:18:42;17.70;99.90
59128;DHT22;44912;52.754;5.994;2023-09-08T02:21:08;17.50;99.90
59128;DHT22;44912;52.754;5.994;2023-09-08T02:23:34;17.40;99.90
59128;DHT22;44912;52.754;5.994;2023-09-08T02:25:59;17.40;99.90
59128;DHT22;44912;52.754;5.994;2023-09-08T02:28:25;17.40;99.90
59128;DHT22;44912;52.754;5.994;2023-09-08T02:30:51;17.40;99.90
59128;DHT22;44912;52.754;5.994;2023-09-08T02:33:16;17.50;99.90
59128;DHT22;44912;52.754;5.994;2023-09-08T02:35:42;17.50;99.90
59128;DHT22;44912;52.754;5.994;2023-09-08T02:38:08;17.60;99.90
59128;DHT22;44912;52.754;5.994;2023-09-08T02:40:33;17.60;99.90
59128;DHT22;44912;52.754;5.994;2023-09-08T02:43:03;17.60;99.90
59128;DHT22;44912;52.754;5.994;2023-09-08T02:45:29;17.60;99.90
59128;DHT22;44912;52.754;5.994;2023-09-08T02:47:55;17.50;99.90
59128;DHT22;44912;52.754;5.994;2023-09-08T02:50:21;17.50;99.90
59128;DHT22;44912;52.754;5.994;2023-09-08T02:52:46;17.60;99.90
59128;DHT22;44912;52.754;5.994;2023-09-08T02:55:12;17.50;99.90
59128;DHT22;44912;52.754;5.994;2023-09-08T02:57:39;17.60;99.90
59128;DHT22;44912;52.754;5.994;2023-09-08T03:00:05;17.60;99.90
59128;DHT22;44912;52.754;5.994;2023-09-08T03:02:32;17.60;99.90
59128;DHT22;44912;52.754;5.994;2023-09-08T03:04:57;17.60;99.90
59128;DHT22;44912;52.754;5.994;2023-09-08T03:07:23;17.60;99.90
59128;DHT22;44912;52.754;5.994;2023-09-08T03:09:48;17.60;99.90
59128;DHT22;44912;52.754;5.994;2023-09-08T03:12:14;17.60;99.90
59128;DHT22;44912;52.754;5.994;2023-09-08T03:14:40;17.50;99.90
59128;DHT22;44912;52.754;5.994;2023-09-08T03:17:05;17.50;99.90
59128;DHT22;44912;52.754;5.994;2023-09-08T03:19:31;17.50;99.90
59128;DHT22;44912;52.754;5.994;2023-09-08T03:21:57;17.40;99.90
59128;DHT22;44912;52.754;5.994;2023-09-08T03:24:22;17.40;99.90
59128;DHT22;44912;52.754;5.994;2023-09-08T03:26:48;17.20;99.90
59128;DHT22;44912;52.754;5.994;2023-09-08T03:29:13;17.10;99.90
59128;DHT22;44912;52.754;5.994;2023-09-08T03:31:39;17.00;99.90
59128;DHT22;44912;52.754;5.994;2023-09-08T03:34:04;17.00;99.90
59128;DHT22;44912;52.754;5.994;2023-09-08T03:36:30;16.90;99.90
59128;DHT22;44912;52.754;5.994;2023-09-08T03:38:56;16.90;99.90
59128;DHT22;44912;52.754;5.994;2023-09-08T03:41:23;16.90;99.90
59128;DHT22;44912;52.754;5.994;2023-09-08T03:43:49;16.80;99.90
59128;DHT22;44912;52.754;5.994;2023-09-08T03:46:14;16.80;99.90
59128;DHT22;44912;52.754;5.994;2023-09-08T03:48:40;16.90;99.90
59128;DHT22;44912;52.754;5.994;2023-09-08T03:51:05;16.90;99.90
59128;DHT22;44912;52.754;5.994;2023-09-08T03:53:31;16.90;99.90
59128;DHT22;44912;52.754;5.994;2023-09-08T03:55:57;16.90;99.90
59128;DHT22;44912;52.754;5.994;2023-09-08T03:58:22;16.90;99.90
59128;DHT22;44912;52.754;5.994;2023-09-08T04:00:48;16.90;99.90
59128;DHT22;44912;52.754;5.994;2023-09-08T04:03:13;17.00;99.90
59128;DHT22;44912;52.754;5.994;2023-09-08T04:05:39;16.90;99.90
59128;DHT22;44912;52.754;5.994;2023-09-08T04:08:05;16.90;99.90
59128;DHT22;44912;52.754;5.994;2023-09-08T04:10:30;17.00;99.90
59128;DHT22;44912;52.754;5.994;2023-09-08T04:12:56;17.00;99.90
59128;DHT22;44912;52.754;5.994;2023-09-08T04:15:21;16.90;99.90
59128;DHT22;44912;52.754;5.994;2023-09-08T04:17:48;16.90;99.90
59128;DHT22;44912;52.754;5.994;2023-09-08T04:20:13;16.80;99.90
59128;DHT22;44912;52.754;5.994;2023-09-08T04:22:41;16.70;99.90
59128;DHT22;44912;52.754;5.994;2023-09-08T04:25:07;16.60;99.90
59128;DHT22;44912;52.754;5.994;2023-09-08T04:27:33;16.50;99.90
59128;DHT22;44912;52.754;5.994;2023-09-08T04:29:58;16.40;99.90
59128;DHT22;44912;52.754;5.994;2023-09-08T04:32:24;16.30;99.90
59128;DHT22;44912;52.754;5.994;2023-09-08T04:34:50;16.30;99.90
59128;DHT22;44912;52.754;5.994;2023-09-08T04:37:16;16.40;99.90
59128;DHT22;44912;52.754;5.994;2023-09-08T04:39:42;16.50;99.90
59128;DHT22;44912;52.754;5.994;2023-09-08T04:42:07;16.50;99.90
59128;DHT22;44912;52.754;5.994;2023-09-08T04:44:33;16.50;99.90
59128;DHT22;44912;52.754;5.994;2023-09-08T04:46:58;16.60;99.90
59128;DHT22;44912;52.754;5.994;2023-09-08T04:49:24;16.60;99.90
59128;DHT22;44912;52.754;5.994;2023-09-08T04:51:50;16.60;99.90
59128;DHT22;44912;52.754;5.994;2023-09-08T04:54:15;16.50;99.90
59128;DHT22;44912;52.754;5.994;2023-09-08T04:56:41;16.50;99.90
59128;DHT22;44912;52.754;5.994;2023-09-08T04:59:07;16.50;99.90
59128;DHT22;44912;52.754;5.994;2023-09-08T05:01:32;16.50;99.90
59128;DHT22;44912;52.754;5.994;2023-09-08T05:03:59;16.40;99.90
59128;DHT22;44912;52.754;5.994;2023-09-08T05:06:25;16.40;99.90
59128;DHT22;44912;52.754;5.994;2023-09-08T05:08:51;16.30;99.90
59128;DHT22;44912;52.754;5.994;2023-09-08T05:11:16;16.30;99.90
59128;DHT22;44912;52.754;5.994;2023-09-08T05:13:42;16.30;99.90
59128;DHT22;44912;52.754;5.994;2023-09-08T05:16:08;16.50;99.90
59128;DHT22;44912;52.754;5.994;2023-09-08T05:18:40;16.50;99.90
59128;DHT22;44912;52.754;5.994;2023-09-08T05:21:07;16.60;99.90
59128;DHT22;44912;52.754;5.994;2023-09-08T05:23:33;16.70;99.90
59128;DHT22;44912;52.754;5.994;2023-09-08T05:26:00;16.70;99.90
59128;DHT22;44912;52.754;5.994;2023-09-08T05:28:26;16.70;99.90
59128;DHT22;44912;52.754;5.994;2023-09-08T05:30:52;16.70;99.90
59128;DHT22;44912;52.754;5.994;2023-09-08T05:33:18;16.80;99.90
59128;DHT22;44912;52.754;5.994;2023-09-08T05:35:44;16.80;99.90
59128;DHT22;44912;52.754;5.994;2023-09-08T05:38:10;16.90;99.90
59128;DHT22;44912;52.754;5.994;2023-09-08T05:40:35;16.90;99.90
59128;DHT22;44912;52.754;5.994;2023-09-08T05:43:01;16.90;99.90
59128;DHT22;44912;52.754;5.994;2023-09-08T05:45:27;17.00;99.90
59128;DHT22;44912;52.754;5.994;2023-09-08T05:47:53;17.10;99.90
59128;DHT22;44912;52.754;5.994;2023-09-08T05:50:19;17.10;99.90
59128;DHT22;44912;52.754;5.994;2023-09-08T05:52:44;17.20;99.90
59128;DHT22;44912;52.754;5.994;2023-09-08T05:55:10;17.30;99.90
59128;DHT22;44912;52.754;5.994;2023-09-08T05:57:35;17.30;99.90
59128;DHT22;44912;52.754;5.994;2023-09-08T06:00:05;17.40;99.90
59128;DHT22;44912;52.754;5.994;2023-09-08T06:02:31;17.50;99.90
59128;DHT22;44912;52.754;5.994;2023-09-08T06:04:56;17.50;99.90
59128;DHT22;44912;52.754;5.994;2023-09-08T06:07:22;17.70;99.90
59128;DHT22;44912;52.754;5.994;2023-09-08T06:09:48;17.70;99.90
59128;DHT22;44912;52.754;5.994;2023-09-08T06:12:13;17.80;99.90
59128;DHT22;44912;52.754;5.994;2023-09-08T06:14:39;17.80;99.90
59128;DHT22;44912;52.754;5.994;2023-09-08T06:17:04;17.90;99.90
59128;DHT22;44912;52.754;5.994;2023-09-08T06:19:30;18.00;99.90
59128;DHT22;44912;52.754;5.994;2023-09-08T06:21:55;18.00;99.90
59128;DHT22;44912;52.754;5.994;2023-09-08T06:24:21;18.10;99.90
59128;DHT22;44912;52.754;5.994;2023-09-08T06:26:47;18.20;99.90
59128;DHT22;44912;52.754;5.994;2023-09-08T06:29:12;18.30;99.90
59128;DHT22;44912;52.754;5.994;2023-09-08T06:31:38;18.40;99.90
59128;DHT22;44912;52.754;5.994;2023-09-08T06:34:03;18.50;99.90
59128;DHT22;44912;52.754;5.994;2023-09-08T06:36:29;18.60;99.90
59128;DHT22;44912;52.754;5.994;2023-09-08T06:38:54;18.60;99.90
59128;DHT22;44912;52.754;5.994;2023-09-08T06:41:20;18.80;99.90
59128;DHT22;44912;52.754;5.994;2023-09-08T06:43:46;18.80;99.90
59128;DHT22;44912;52.754;5.994;2023-09-08T06:46:11;19.00;99.90
59128;DHT22;44912;52.754;5.994;2023-09-08T06:48:37;19.10;99.90
59128;DHT22;44912;52.754;5.994;2023-09-08T06:51:02;19.20;99.90
59128;DHT22;44912;52.754;5.994;2023-09-08T06:53:28;19.30;99.90
59128;DHT22;44912;52.754;5.994;2023-09-08T06:55:53;19.40;99.90
59128;DHT22;44912;52.754;5.994;2023-09-08T06:58:19;19.50;99.90
59128;DHT22;44912;52.754;5.994;2023-09-08T07:00:44;19.60;99.90
59128;DHT22;44912;52.754;5.994;2023-09-08T07:03:10;19.70;99.90
59128;DHT22;44912;52.754;5.994;2023-09-08T07:05:36;19.80;99.90
59128;DHT22;44912;52.754;5.994;2023-09-08T07:08:01;20.00;99.90
59128;DHT22;44912;52.754;5.994;2023-09-08T07:10:27;20.10;99.90
59128;DHT22;44912;52.754;5.994;2023-09-08T07:12:52;20.20;99.90
59128;DHT22;44912;52.754;5.994;2023-09-08T07:15:18;20.30;99.90
59128;DHT22;44912;52.754;5.994;2023-09-08T07:17:44;20.40;99.90
59128;DHT22;44912;52.754;5.994;2023-09-08T07:20:09;20.50;99.90
59128;DHT22;44912;52.754;5.994;2023-09-08T07:22:35;20.70;99.90
59128;DHT22;44912;52.754;5.994;2023-09-08T07:25:01;20.70;99.90
59128;DHT22;44912;52.754;5.994;2023-09-08T07:27:26;20.90;99.90
59128;DHT22;44912;52.754;5.994;2023-09-08T07:29:52;21.00;99.90
59128;DHT22;44912;52.754;5.994;2023-09-08T07:32:18;21.10;99.90
59128;DHT22;44912;52.754;5.994;2023-09-08T07:34:44;21.20;99.90
59128;DHT22;44912;52.754;5.994;2023-09-08T07:37:09;21.30;99.90
59128;DHT22;44912;52.754;5.994;2023-09-08T07:39:35;21.50;99.90
59128;DHT22;44912;52.754;5.994;2023-09-08T07:42:01;21.60;99.90
59128;DHT22;44912;52.754;5.994;2023-09-08T07:44:27;21.70;99.90
59128;DHT22;44912;52.754;5.994;2023-09-08T07:46:53;21.80;99.90
59128;DHT22;44912;52.754;5.994;2023-09-08T07:49:20;21.90;99.90
59128;DHT22;44912;52.754;5.994;2023-09-08T07:51:46;22.00;99.90
59128;DHT22;44912;52.754;5.994;2023-09-08T07:54:13;22.20;99.90
59128;DHT22;44912;52.754;5.994;2023-09-08T07:56:38;22.30;99.90
59128;DHT22;44912;52.754;5.994;2023-09-08T07:59:06;22.40;99.90
59128;DHT22;44912;52.754;5.994;2023-09-08T08:01:32;22.50;99.90
59128;DHT22;44912;52.754;5.994;2023-09-08T08:03:58;22.70;99.90
59128;DHT22;44912;52.754;5.994;2023-09-08T08:06:23;22.80;99.90
59128;DHT22;44912;52.754;5.994;2023-09-08T08:08:49;22.90;99.90
59128;DHT22;44912;52.754;5.994;2023-09-08T08:11:16;23.00;99.90
59128;DHT22;44912;52.754;5.994;2023-09-08T08:13:43;23.10;99.90
59128;DHT22;44912;52.754;5.994;2023-09-08T08:16:08;23.20;99.90
59128;DHT22;44912;52.754;5.994;2023-09-08T08:18:34;23.30;99.90
59128;DHT22;44912;52.754;5.994;2023-09-08T08:21:00;23.40;99.90
59128;DHT22;44912;52.754;5.994;2023-09-08T08:23:28;23.50;99.90
59128;DHT22;44912;52.754;5.994;2023-09-08T08:25:53;23.60;99.90
59128;DHT22;44912;52.754;5.994;2023-09-08T08:28:19;23.70;99.90
59128;DHT22;44912;52.754;5.994;2023-09-08T08:30:45;23.80;99.90
59128;DHT22;44912;52.754;5.994;2023-09-08T08:33:13;23.90;99.90
59128;DHT22;44912;52.754;5.994;2023-09-08T08:35:39;24.00;99.90
59128;DHT22;44912;52.754;5.994;2023-09-08T08:38:05;24.10;99.90
59128;DHT22;44912;52.754;5.994;2023-09-08T08:40:31;24.30;99.90
59128;DHT22;44912;52.754;5.994;2023-09-08T08:42:57;24.40;99.90
59128;DHT22;44912;52.754;5.994;2023-09-08T08:45:24;24.50;99.90
59128;DHT22;44912;52.754;5.994;2023-09-08T08:47:53;24.70;99.90
59128;DHT22;44912;52.754;5.994;2023-09-08T08:50:20;24.70;99.90
59128;DHT22;44912;52.754;5.994;2023-09-08T08:52:46;24.90;99.90
59128;DHT22;44912;52.754;5.994;2023-09-08T08:55:12;25.00;99.90
59128;DHT22;44912;52.754;5.994;2023-09-08T08:57:40;25.10;99.90
59128;DHT22;44912;52.754;5.994;2023-09-08T09:00:10;25.30;99.90
59128;DHT22;44912;52.754;5.994;2023-09-08T09:02:41;25.40;99.90
59128;DHT22;44912;52.754;5.994;2023-09-08T09:05:16;25.50;99.90
59128;DHT22;44912;52.754;5.994;2023-09-08T09:07:42;25.70;99.90
59128;DHT22;44912;52.754;5.994;2023-09-08T09:10:09;25.80;99.90
59128;DHT22;44912;52.754;5.994;2023-09-08T09:12:38;25.90;99.90
59128;DHT22;44912;52.754;5.994;2023-09-08T09:15:04;26.00;99.90
59128;DHT22;44912;52.754;5.994;2023-09-08T09:17:33;26.10;99.90
59128;DHT22;44912;52.754;5.994;2023-09-08T09:20:16;26.20;99.90
59128;DHT22;44912;52.754;5.994;2023-09-08T09:22:46;26.40;99.90
59128;DHT22;44912;52.754;5.994;2023-09-08T09:25:28;26.40;99.90
59128;DHT22;44912;52.754;5.994;2023-09-08T09:27:59;26.50;99.90
59128;DHT22;44912;52.754;5.994;2023-09-08T09:30:26;26.60;99.90
59128;DHT22;44912;52.754;5.994;2023-09-08T09:33:01;26.70;99.90
59128;DHT22;44912;52.754;5.994;2023-09-08T09:35:43;26.80;99.90
59128;DHT22;44912;52.754;5.994;2023-09-08T09:38:09;27.00;99.90
59128;DHT22;44912;52.754;5.994;2023-09-08T09:40:35;27.00;99.90
59128;DHT22;44912;52.754;5.994;2023-09-08T09:43:01;27.10;99.90
59128;DHT22;44912;52.754;5.994;2023-09-08T09:45:29;27.20;99.90
59128;DHT22;44912;52.754;5.994;2023-09-08T09:47:55;27.40;99.90
59128;DHT22;44912;52.754;5.994;2023-09-08T09:50:29;27.50;99.90
59128;DHT22;44912;52.754;5.994;2023-09-08T09:52:57;27.70;99.90
59128;DHT22;44912;52.754;5.994;2023-09-08T09:55:26;27.80;99.90
59128;DHT22;44912;52.754;5.994;2023-09-08T09:57:57;27.90;99.90
59128;DHT22;44912;52.754;5.994;2023-09-08T10:00:29;28.00;99.90
59128;DHT22;44912;52.754;5.994;2023-09-08T10:02:56;28.10;99.90
59128;DHT22;44912;52.754;5.994;2023-09-08T10:05:23;28.20;99.90
59128;DHT22;44912;52.754;5.994;2023-09-08T10:07:50;28.30;99.90
59128;DHT22;44912;52.754;5.994;2023-09-08T10:10:16;28.40;99.90
59128;DHT22;44912;52.754;5.994;2023-09-08T10:12:44;28.40;99.90
59128;DHT22;44912;52.754;5.994;2023-09-08T10:15:11;28.60;99.90
59128;DHT22;44912;52.754;5.994;2023-09-08T10:17:37;28.70;99.90
59128;DHT22;44912;52.754;5.994;2023-09-08T10:20:04;28.80;99.90
59128;DHT22;44912;52.754;5.994;2023-09-08T10:22:38;28.90;99.90
59128;DHT22;44912;52.754;5.994;2023-09-08T10:25:06;28.90;99.90
59128;DHT22;44912;52.754;5.994;2023-09-08T10:27:33;29.00;99.90
59128;DHT22;44912;52.754;5.994;2023-09-08T10:30:00;29.10;99.90
59128;DHT22;44912;52.754;5.994;2023-09-08T10:32:27;29.20;99.90
59128;DHT22;44912;52.754;5.994;2023-09-08T10:34:53;29.30;99.90
59128;DHT22;44912;52.754;5.994;2023-09-08T10:37:21;29.50;99.90
59128;DHT22;44912;52.754;5.994;2023-09-08T10:39:47;29.60;99.90
59128;DHT22;44912;52.754;5.994;2023-09-08T10:44:55;29.80;99.90
59128;DHT22;44912;52.754;5.994;2023-09-08T10:50:08;29.90;99.90
59128;DHT22;44912;52.754;5.994;2023-09-08T10:52:41;30.00;99.90
59128;DHT22;44912;52.754;5.994;2023-09-08T10:55:07;30.00;99.90
59128;DHT22;44912;52.754;5.994;2023-09-08T10:57:33;30.10;99.90
59128;DHT22;44912;52.754;5.994;2023-09-08T11:00:03;30.20;99.90
59128;DHT22;44912;52.754;5.994;2023-09-08T11:02:47;30.30;99.90
59128;DHT22;44912;52.754;5.994;2023-09-08T11:05:15;30.30;99.90
59128;DHT22;44912;52.754;5.994;2023-09-08T11:07:44;30.40;99.90
59128;DHT22;44912;52.754;5.994;2023-09-08T11:10:12;30.50;99.90
59128;DHT22;44912;52.754;5.994;2023-09-08T11:12:38;30.60;99.90
59128;DHT22;44912;52.754;5.994;2023-09-08T11:15:05;30.70;99.90
59128;DHT22;44912;52.754;5.994;2023-09-08T11:17:33;30.70;99.90
59128;DHT22;44912;52.754;5.994;2023-09-08T11:20:00;30.70;99.90
59128;DHT22;44912;52.754;5.994;2023-09-08T11:22:26;30.80;99.90
59128;DHT22;44912;52.754;5.994;2023-09-08T11:24:53;30.80;99.90
59128;DHT22;44912;52.754;5.994;2023-09-08T11:27:22;30.90;99.90
59128;DHT22;44912;52.754;5.994;2023-09-08T11:29:48;31.00;99.90
59128;DHT22;44912;52.754;5.994;2023-09-08T11:32:14;31.10;99.90
59128;DHT22;44912;52.754;5.994;2023-09-08T11:34:40;31.20;99.90
59128;DHT22;44912;52.754;5.994;2023-09-08T11:37:14;31.30;99.90
59128;DHT22;44912;52.754;5.994;2023-09-08T11:39:42;31.40;99.90
59128;DHT22;44912;52.754;5.994;2023-09-08T11:42:09;31.40;99.90
59128;DHT22;44912;52.754;5.994;2023-09-08T11:44:36;31.40;99.90
59128;DHT22;44912;52.754;5.994;2023-09-08T11:47:02;31.50;99.90
59128;DHT22;44912;52.754;5.994;2023-09-08T11:49:42;31.60;99.90
59128;DHT22;44912;52.754;5.994;2023-09-08T11:52:09;31.60;99.90
59128;DHT22;44912;52.754;5.994;2023-09-08T11:54:35;31.60;99.90
59128;DHT22;44912;52.754;5.994;2023-09-08T11:57:02;31.60;99.90
59128;DHT22;44912;52.754;5.994;2023-09-08T11:59:33;31.70;99.90
59128;DHT22;44912;52.754;5.994;2023-09-08T12:01:59;31.70;99.90
59128;DHT22;44912;52.754;5.994;2023-09-08T12:04:25;31.80;99.90
59128;DHT22;44912;52.754;5.994;2023-09-08T12:06:54;31.80;99.90
59128;DHT22;44912;52.754;5.994;2023-09-08T12:09:23;31.80;99.90
59128;DHT22;44912;52.754;5.994;2023-09-08T12:11:49;31.90;99.90
59128;DHT22;44912;52.754;5.994;2023-09-08T12:14:15;32.00;99.90
59128;DHT22;44912;52.754;5.994;2023-09-08T12:16:42;32.00;99.90
59128;DHT22;44912;52.754;5.994;2023-09-08T12:19:10;32.00;99.90
59128;DHT22;44912;52.754;5.994;2023-09-08T12:21:59;32.00;99.90
59128;DHT22;44912;52.754;5.994;2023-09-08T12:24:48;32.10;99.90
59128;DHT22;44912;52.754;5.994;2023-09-08T12:27:18;32.10;99.90
59128;DHT22;44912;52.754;5.994;2023-09-08T12:30:00;32.20;99.90
59128;DHT22;44912;52.754;5.994;2023-09-08T12:32:29;32.30;99.90
59128;DHT22;44912;52.754;5.994;2023-09-08T12:34:55;32.30;99.90
59128;DHT22;44912;52.754;5.994;2023-09-08T12:37:25;32.30;99.90
59128;DHT22;44912;52.754;5.994;2023-09-08T12:39:53;32.30;99.90
59128;DHT22;44912;52.754;5.994;2023-09-08T12:42:19;32.30;99.90
59128;DHT22;44912;52.754;5.994;2023-09-08T12:44:45;32.30;99.90
59128;DHT22;44912;52.754;5.994;2023-09-08T12:47:11;32.30;99.90
59128;DHT22;44912;52.754;5.994;2023-09-08T12:49:39;32.30;99.90
59128;DHT22;44912;52.754;5.994;2023-09-08T12:52:05;32.30;99.90
59128;DHT22;44912;52.754;5.994;2023-09-08T12:54:31;32.40;99.90
59128;DHT22;44912;52.754;5.994;2023-09-08T12:56:56;32.50;99.90
59128;DHT22;44912;52.754;5.994;2023-09-08T12:59:22;32.50;99.90
59128;DHT22;44912;52.754;5.994;2023-09-08T13:01:47;32.40;99.90
59128;DHT22;44912;52.754;5.994;2023-09-08T13:04:13;32.40;99.90
59128;DHT22;44912;52.754;5.994;2023-09-08T13:06:39;32.50;99.90
59128;DHT22;44912;52.754;5.994;2023-09-08T13:09:04;32.40;99.90
59128;DHT22;44912;52.754;5.994;2023-09-08T13:11:31;32.50;99.90
59128;DHT22;44912;52.754;5.994;2023-09-08T13:13:56;32.50;99.90
59128;DHT22;44912;52.754;5.994;2023-09-08T13:16:22;32.50;99.90
59128;DHT22;44912;52.754;5.994;2023-09-08T13:18:47;32.60;99.90
59128;DHT22;44912;52.754;5.994;2023-09-08T13:21:14;32.60;99.90
59128;DHT22;44912;52.754;5.994;2023-09-08T13:23:40;32.50;99.90
59128;DHT22;44912;52.754;5.994;2023-09-08T13:26:05;32.60;99.90
59128;DHT22;44912;52.754;5.994;2023-09-08T13:28:31;32.60;99.90
59128;DHT22;44912;52.754;5.994;2023-09-08T13:30:56;32.50;99.90
59128;DHT22;44912;52.754;5.994;2023-09-08T13:33:22;32.50;99.90
59128;DHT22;44912;52.754;5.994;2023-09-08T13:35:47;32.50;99.90
59128;DHT22;44912;52.754;5.994;2023-09-08T13:38:13;32.50;99.90
59128;DHT22;44912;52.754;5.994;2023-09-08T13:40:38;32.30;99.90
59128;DHT22;44912;52.754;5.994;2023-09-08T13:43:05;32.20;99.90
59128;DHT22;44912;52.754;5.994;2023-09-08T13:45:30;32.20;99.90
59128;DHT22;44912;52.754;5.994;2023-09-08T13:47:56;32.10;99.90
59128;DHT22;44912;52.754;5.994;2023-09-08T13:50:21;32.10;99.90
59128;DHT22;44912;52.754;5.994;2023-09-08T13:52:49;32.00;99.90
59128;DHT22;44912;52.754;5.994;2023-09-08T13:55:14;32.00;99.90
59128;DHT22;44912;52.754;5.994;2023-09-08T13:57:40;32.00;99.90
59128;DHT22;44912;52.754;5.994;2023-09-08T14:00:06;31.90;99.90
59128;DHT22;44912;52.754;5.994;2023-09-08T14:02:34;31.90;99.90
59128;DHT22;44912;52.754;5.994;2023-09-08T14:04:59;31.90;99.90
59128;DHT22;44912;52.754;5.994;2023-09-08T14:07:25;31.90;99.90
59128;DHT22;44912;52.754;5.994;2023-09-08T14:09:50;31.80;99.90
59128;DHT22;44912;52.754;5.994;2023-09-08T14:12:16;31.80;99.90
59128;DHT22;44912;52.754;5.994;2023-09-08T14:14:41;31.80;99.90
59128;DHT22;44912;52.754;5.994;2023-09-08T14:17:07;31.60;99.90
59128;DHT22;44912;52.754;5.994;2023-09-08T14:19:33;31.60;99.90
59128;DHT22;44912;52.754;5.994;2023-09-08T14:21:58;31.60;99.90
59128;DHT22;44912;52.754;5.994;2023-09-08T14:24:24;31.60;99.90
59128;DHT22;44912;52.754;5.994;2023-09-08T14:26:49;31.70;99.90
59128;DHT22;44912;52.754;5.994;2023-09-08T14:29:17;31.60;99.90
59128;DHT22;44912;52.754;5.994;2023-09-08T14:31:43;31.60;99.90
59128;DHT22;44912;52.754;5.994;2023-09-08T14:34:09;31.70;99.90
59128;DHT22;44912;52.754;5.994;2023-09-08T14:36:34;31.70;99.90
59128;DHT22;44912;52.754;5.994;2023-09-08T14:39:00;31.70;99.90
59128;DHT22;44912;52.754;5.994;2023-09-08T14:41:26;31.70;99.90
59128;DHT22;44912;52.754;5.994;2023-09-08T14:43:51;31.70;99.90
59128;DHT22;44912;52.754;5.994;2023-09-08T14:46:17;31.70;99.90
59128;DHT22;44912;52.754;5.994;2023-09-08T14:48:42;31.70;99.90
59128;DHT22;44912;52.754;5.994;2023-09-08T14:51:08;31.70;99.90
59128;DHT22;44912;52.754;5.994;2023-09-08T14:53:34;31.80;99.90
59128;DHT22;44912;52.754;5.994;2023-09-08T14:55:59;31.80;99.90
59128;DHT22;44912;52.754;5.994;2023-09-08T14:58:25;31.80;99.90
59128;DHT22;44912;52.754;5.994;2023-09-08T15:00:57;31.80;99.90
59128;DHT22;44912;52.754;5.994;2023-09-08T15:03:23;31.80;99.90
59128;DHT22;44912;52.754;5.994;2023-09-08T15:05:48;31.90;99.90
59128;DHT22;44912;52.754;5.994;2023-09-08T15:08:14;31.90;99.90
59128;DHT22;44912;52.754;5.994;2023-09-08T15:10:39;31.80;99.90
59128;DHT22;44912;52.754;5.994;2023-09-08T15:13:05;31.90;99.90
59128;DHT22;44912;52.754;5.994;2023-09-08T15:15:30;31.90;99.90
59128;DHT22;44912;52.754;5.994;2023-09-08T15:17:56;31.90;99.90
59128;DHT22;44912;52.754;5.994;2023-09-08T15:20:22;31.80;99.90
59128;DHT22;44912;52.754;5.994;2023-09-08T15:22:48;31.90;99.90
59128;DHT22;44912;52.754;5.994;2023-09-08T15:25:13;31.90;99.90
59128;DHT22;44912;52.754;5.994;2023-09-08T15:27:40;32.00;99.90
59128;DHT22;44912;52.754;5.994;2023-09-08T15:30:06;32.00;99.90
59128;DHT22;44912;52.754;5.994;2023-09-08T15:32:31;32.00;99.90
59128;DHT22;44912;52.754;5.994;2023-09-08T15:34:57;32.10;99.90